Aviation Digital Data Service (ADDS)

Output produced by METARs form (0226 UTC 26 April 2019)
found at http://www.aviationweather.gov/metar/data/
 
RJTT 260200Z 06018KT 9999 -SHRA FEW006 BKN009 BKN015 11/11 Q1004 BECMG FEW005 BKN012 RMK 1ST006 5ST009 7CU015 A2966
RJTT 260130Z 06017KT 9999 -SHRA FEW006 BKN008 BKN012 11/10 Q1004 BECMG FEW005 BKN012
TAF AMD RJTT 260155Z 2601/2706 05014KT 9999 FEW008 BKN020 
     TEMPO 2601/2603 FEW005 BKN008 
     TEMPO 2609/2615 FEW005 BKN008 
     TEMPO 2615/2621 4000 SHRA BR FEW005 BKN008 
     BECMG 2700/2703 35024KT 
     TEMPO 2700/2706 35026G36KT
       
RJAA 260200Z 04016G26KT 020V080 9000 -SHRA FEW005 SCT006 BKN007 09/08 Q1004 NOSIG RMK 1ST005 3ST006 6ST007 A2967
RJAA 260130Z 03016KT 8000 -SHRA FEW004 SCT006 BKN007 09/09 Q1005 TEMPO 4000 -RA BR FEW003 BKN005
TAF AMD RJAA 260211Z 2602/2706 04012KT 8000 FEW005 BKN008 
     BECMG 2603/2605 FEW008 BKN012 
     TEMPO 2606/2612 4000 -RA BR FEW004 BKN008 
     TEMPO 2615/2700 3000 SHRA BR FEW003 BKN005
       
RJGG 260200Z 27013KT 9999 FEW020 BKN030 20/16 Q1003 NOSIG
RJGG 260130Z 25014KT 9999 FEW025 BKN040 20/16 Q1003 BECMG TL0200 28012KT
TAF RJGG 252312Z 2600/2706 32010KT 9999 FEW020 BKN040 
     BECMG 2612/2615 32028KT 
     TEMPO 2700/2706 32034G45KT
       
RJBB 260200Z 24004KT 180V290 9999 FEW020 BKN035 20/15 Q1005 NOSIG
RJBB 260130Z 25005KT 9999 FEW020 SCT030 BKN040 21/16 Q1005 NOSIG
TAF RJBB 252315Z 2600/2706 26009KT 9999 FEW025 SCT045 
     BECMG 2607/2609 01016KT 
     TEMPO 2612/2615 4000 SHRA BR
       
RJOO 260200Z 29004KT 200V340 9999 FEW010 BKN020 20/16 Q1005 RMK 1CU010 5CU020 A2969
TAF RJOO 252317Z 2600/2706 28005KT 9999 FEW015 BKN035 
     BECMG 2606/2608 35012KT 
     TEMPO 2611/2615 4000 SHRA BR 
     TEMPO 2700/2706 34018G28KT
       
RJFF 260200Z 25014KT 220V290 9999 -SHRA SCT010 SCT015 BKN025 18/14 Q1009 TEMPO 28015G25KT
RJFF 260130Z 29010KT 200V330 9999 -SHRA FEW015 SCT020 BKN040 20/15 Q1008 TEMPO 28015G25KT
TAF RJFF 252307Z 2600/2706 30005KT 9000 FEW008 SCT010 BKN020 
     BECMG 2601/2603 28015KT 
     TEMPO 2602/2608 28015G25KT 
     BECMG 2610/2612 34010KT 
     TEMPO 2611/2615 4000 SHRA BR FEW005 BKN008 BKN015
       
ROAH 260200Z 36013KT 9999 FEW015 26/21 Q1013 RMK 1CU015 A2991
ROAH 260130Z 34008KT 9999 SCT015 26/22 Q1013 RMK 3CU015 A2991
TAF ROAH 252306Z 2600/2706 36014KT 9999 FEW015
       
RJCC 260200Z 35010KT 9999 FEW020 BKN040 07/M00 Q1010 RMK 1CU020 7CU040 A2985
RJCC 260130Z 35010KT 9999 FEW020 SCT035 BKN060 07/M01 Q1011 RMK 1CU020 4CU035 5CU060 A2987
TAF RJCC 252306Z 2600/2706 35012KT 9999 FEW008 BKN020 
     TEMPO 2609/2612 2000 -SHSNRA FEW005 BKN008 
     TEMPO 2612/2615 1500 -SHSN FEW003 BKN006 
     TEMPO 2615/2700 2000 -SHSN FEW003 BKN006 
     TEMPO 2700/2703 4000 -SHSNRA FEW005 BKN008
       
RJEC 260200Z VRB02KT 9999 FEW040 SCT070 BKN090 06/M01 Q1011
TAF RJEC 252309Z 2600/2706 34011KT 9999 FEW010 BKN025 
     TEMPO 2610/2612 2000 -SHSN FEW005 BKN008 
     TEMPO 2612/2618 0700 SHSN VV005 
     TEMPO 2618/2621 2000 -SHSN
       
RJCK 260200Z 03015KT 360V060 9999 FEW030 BKN100 05/M04 Q1013
TAF RJCK 252310Z 2600/2706 02016KT 9999 FEW015 BKN030 
     TEMPO 2602/2606 02018G28KT 
     TEMPO 2606/2609 02018G28KT 3000 -SHSN 
     TEMPO 2609/2611 2000 -SHSN FEW005 BKN008 
     TEMPO 2611/2615 0700 SHSN VV005 
     TEMPO 2615/2700 2000 -SHSN FEW005 BKN008
       
RJSA 260214Z 27005KT 240V310 4500 -SHRA BR FEW005 SCT015 BKN040 05/01 Q1007 RMK 1ST005 3CU015 7CU040 A2975
RJSA 260200Z 34004KT 290V050 9999 -SHRA FEW010 SCT020 BKN040 05/02 Q1007
TAF RJSA 252312Z 2600/2706 05010KT 8000 -SHRASN FEW010 BKN020 BKN030 
     TEMPO 2603/2609 3000 -SHRASN BR FEW003 BKN008 BKN015 
     TEMPO 2609/2621 3000 -SHSN
       
RJSK 260200Z 14008KT 110V190 9999 -SHRA FEW003 BKN007 BKN012 09/07 Q1005
RJSK 260150Z 14006KT 110V170 9999 -SHRA FEW003 BKN007 BKN040 08/07 Q1005 RMK 1ST003 5ST007 6CU040 A2968
TAF AMD RJSK 260205Z 2602/2706 13012KT 8000 -SHRA FEW010 BKN020 BKN030 
     TEMPO 2602/2606 3000 SHRA BR FEW005 BKN008 BKN020 
     TEMPO 2618/2703 3000 -SHRA BR FEW005 BKN008 BKN015 
     BECMG 2700/2703 30010KT
       
RJSN 260215Z 32008KT 5000 SHRA BR FEW004 BKN007 BKN010 11/11 Q1003 RMK 2ST004 5ST007 7CU010 A2963
RJSN 260205Z 33006KT 4000 -SHRA BR FEW004 BKN007 BKN010 11/11 Q1003 RMK 2ST004 5ST007 7CU010 A2963
RJSN 260200Z 34005KT 7000 -SHRA FEW004 SCT007 BKN010 11/11 Q1003
RJSN 260146Z 33006KT 7000 -SHRA FEW004 SCT007 BKN010 11/11 Q1003 RMK 2ST004 4ST007 6CU010 A2962
RJSN 260133Z 32007KT 5000 SHRA BR FEW004 BKN007 BKN010 12/12 Q1003 RMK 2ST004 5ST007 7CU010 A2963
TAF RJSN 252313Z 2600/2706 03006KT 6000 -SHRA FEW008 BKN015 
     TEMPO 2600/2604 3000 SHRA BR FEW005 BKN008 
     BECMG 2602/2604 24014KT 
     TEMPO 2604/2606 4000 -SHRA BR FEW005 BKN008 
     TEMPO 2615/2621 4000 SHRA BR FEW005 BKN008 
     BECMG 2621/2700 32020KT
       
RJSF 260218Z 36008KT 2000 R01/1100VP1800D -SHRA BCFG BR FEW005 SCT009 BKN010 06/06 Q1005 RMK 1ST005 3ST009 7ST010 A2970
RJSF 260212Z 36009KT 3000 -SHRA BR FEW005 BKN010 06/06 Q1005 RMK 1ST005 7ST010 A2970
RJSF 260200Z 35009KT 5000 -SHRA BR FEW005 BKN010 06/05 Q1006
TAF RJSF 252305Z 2600/2706 36010KT 9999 -SHRA FEW010 BKN020 BKN030 
     TEMPO 2600/2603 3000 -SHRA BR FEW003 BKN008 BKN015
       
RJSS 260200Z 01008KT 9999 -RA FEW004 SCT012 BKN020 07/05 Q1008
TAF RJSS 252305Z 2600/2706 04010KT 8000 -RA FEW005 BKN015 BKN030 
     TEMPO 2600/2606 4000 -RA BR FEW003 BKN008 BKN015 
     BECMG 2703/2706 32015KT
       
RJOK 260200Z 26014KT 9999 FEW035 SCT040 26/14 Q1004
TAF RJOK 252318Z 2600/2706 27007KT 9999 FEW020 SCT040 
     BECMG 2612/2615 35014KT 
     TEMPO 2700/2706 35020G30KT
       
RJOM 260200Z 22013KT 9999 FEW015 SCT045 BKN070 17/15 Q1007
TAF RJOM 252310Z 2600/2706 21010KT 9999 FEW020 SCT040 
     BECMG 2601/2603 26018KT 
     BECMG 2612/2615 36010KT
       
RJFO 260200Z 31009KT 280V350 9999 FEW020 BKN045 21/15 Q1007
TAF RJFO 252309Z 2600/2706 32008KT 9999 FEW020 SCT035 
     BECMG 2605/2607 31018KT 
     TEMPO 2605/2609 31018G28KT
       
RJFU 260200Z 29016KT 9999 FEW008 BKN015 BKN020 17/14 Q1010
TAF RJFU 252313Z 2600/2706 22004KT 9999 FEW015 BKN030 
     BECMG 2600/2602 30016KT 
     BECMG 2615/2618 36012KT
       
RJFT 260200Z 24011KT 9999 FEW013 SCT020 22/15 Q1009
TAF AMD RJFT 260037Z 2600/2706 25010KT 9999 FEW010 SCT020 BKN030 
     BECMG 2615/2618 02009KT
       
RJFK 260200Z 26010KT 230V290 9999 FEW010 BKN015 20/15 Q1010 RMK 1CU010 7CU015 A2982
TAF RJFK 252306Z 2600/2706 30015KT 9999 FEW015 SCT030 
     TEMPO 2603/2609 30018G28KT
       
RJFM 260200Z 25014KT 220V300 9999 FEW030 SCT050 25/14 Q1007
TAF RJFM 252307Z 2600/2706 26010KT 9999 FEW030 
     BECMG 2606/2608 27020KT 
     TEMPO 2606/2612 29020G30KT 
     BECMG 2618/2621 28007KT 
     BECMG 2700/2703 04015KT